Time;durP1;ratioP1;P1;durP2;ratioP2;P2;SDS_P1;SDS_P2;PMS_P1;PMS_P2;Temp;Humidity;BMP_temperature;BMP_pressure;BME280_temperature;BME280_humidity;BME280_pressure;Samples;Min_cycle;Max_cycle;Signal;HPM_P1;HPM_P2
2022/03/21 00:02:07;;;;;;;23.37;13.13;;;6.50;99.90;;;;;;4837742;29;20048;-93
2022/03/21 00:04:33;;;;;;;22.35;14.38;;;6.10;99.90;;;;;;4846695;29;20294;-93
2022/03/21 00:06:59;;;;;;;26.27;14.57;;;6.10;99.90;;;;;;4877022;29;20396;-93
2022/03/21 00:09:24;;;;;;;21.53;14.80;;;6.10;99.90;;;;;;4858107;29;20036;-93
2022/03/21 00:11:50;;;;;;;26.60;15.50;;;6.10;99.90;;;;;;4861027;29;20388;-93
2022/03/21 00:14:16;;;;;;;30.73;13.63;;;6.10;99.90;;;;;;4868259;29;20057;-94
2022/03/21 00:16:43;;;;;;;23.53;12.07;;;6.10;99.90;;;;;;4865846;29;20077;-92
2022/03/21 00:19:09;;;;;;;18.70;11.88;;;6.10;99.90;;;;;;4860489;29;20124;-93
2022/03/21 00:21:35;;;;;;;25.45;13.25;;;6.10;99.90;;;;;;4869480;29;20108;-93
2022/03/21 00:24:02;;;;;;;21.00;12.87;;;6.00;99.90;;;;;;4852927;29;20594;-93
2022/03/21 00:26:27;;;;;;;;;;;6.10;99.90;;;;;;4879588;29;20053;-91
2022/03/21 00:28:53;;;;;;;22.63;11.00;;;6.10;99.90;;;;;;4861217;29;20312;-93
2022/03/21 00:31:19;;;;;;;19.40;10.43;;;6.10;99.90;;;;;;4876754;29;20051;-94
2022/03/21 00:33:45;;;;;;;19.27;10.87;;;6.10;99.90;;;;;;4877558;29;20041;-93
2022/03/21 00:36:11;;;;;;;20.70;10.47;;;6.10;99.90;;;;;;4855652;29;20407;-94
2022/03/21 00:38:37;;;;;;;13.13;9.83;;;6.40;99.90;;;;;;4851331;29;20033;-94
2022/03/21 00:41:05;;;;;;;21.92;9.90;;;6.10;99.90;;;;;;4892175;29;20718;-94
2022/03/21 00:43:31;;;;;;;16.13;9.70;;;6.70;99.90;;;;;;4891205;29;20084;-95
2022/03/21 00:45:58;;;;;;;16.92;9.90;;;6.10;99.90;;;;;;4863182;29;20378;-93
2022/03/21 00:48:29;;;;;;;16.42;9.90;;;6.10;99.90;;;;;;4875973;29;20037;-93
2022/03/21 00:50:56;;;;;;;16.90;9.70;;;7.30;99.90;;;;;;4851473;29;20372;-93
2022/03/21 00:53:21;;;;;;;;;;;6.10;99.90;;;;;;4842283;29;20068;-92
2022/03/21 00:55:52;;;;;;;15.75;9.23;;;6.10;99.90;;;;;;4872641;29;19919;-91
2022/03/21 00:58:18;;;;;;;17.30;9.68;;;6.10;99.90;;;;;;4860746;29;20037;-94
2022/03/21 01:00:44;;;;;;;14.20;9.03;;;6.10;99.90;;;;;;4846455;29;20041;-93
2022/03/21 01:03:10;;;;;;;18.67;10.00;;;6.60;99.90;;;;;;4868460;29;20041;-93
2022/03/21 01:05:36;;;;;;;16.87;8.47;;;6.10;99.90;;;;;;4860663;29;20056;-93
2022/03/21 01:08:03;;;;;;;21.10;10.10;;;6.40;99.90;;;;;;4861005;29;20045;-93
2022/03/21 01:10:30;;;;;;;14.18;9.05;;;6.00;99.90;;;;;;4873712;29;20047;-93
2022/03/21 01:12:58;;;;;;;18.00;8.95;;;7.00;99.90;;;;;;4854605;29;20370;-93
2022/03/21 01:15:26;;;;;;;16.13;9.77;;;6.10;99.90;;;;;;4863186;29;20049;-93
2022/03/21 01:17:53;;;;;;;16.00;9.45;;;6.00;99.90;;;;;;4866862;29;20033;-93
2022/03/21 01:20:20;;;;;;;16.73;9.85;;;6.00;99.90;;;;;;4872490;29;20100;-93
2022/03/21 01:22:47;;;;;;;13.88;8.80;;;6.00;99.90;;;;;;4876955;29;20060;-94
2022/03/21 01:25:13;;;;;;;16.90;9.27;;;6.90;99.90;;;;;;4859249;29;20045;-93
2022/03/21 01:27:40;;;;;;;15.23;8.05;;;6.10;99.90;;;;;;4860412;29;20045;-93
2022/03/21 01:30:08;;;;;;;14.50;8.45;;;6.00;99.90;;;;;;4856818;29;20048;-93
2022/03/21 01:32:35;;;;;;;14.93;8.95;;;6.00;99.90;;;;;;4831734;29;20040;-93
2022/03/21 01:35:01;;;;;;;12.38;8.50;;;6.20;99.90;;;;;;4853525;29;20043;-93
2022/03/21 01:37:27;;;;;;;12.95;8.55;;;5.90;99.90;;;;;;4878897;29;20045;-94
2022/03/21 01:39:53;;;;;;;13.50;8.47;;;5.90;99.90;;;;;;4870262;29;21445;-93
2022/03/21 01:42:18;;;;;;;12.47;7.57;;;5.90;99.90;;;;;;4881291;29;20052;-93
2022/03/21 01:44:44;;;;;;;12.23;7.87;;;5.80;99.90;;;;;;4878224;29;20041;-94
2022/03/21 01:47:10;;;;;;;16.90;8.53;;;5.80;99.90;;;;;;4854978;29;20080;-93
2022/03/21 01:49:36;;;;;;;13.15;7.25;;;5.90;99.90;;;;;;4857117;29;20116;-93
2022/03/21 01:52:02;;;;;;;10.38;7.90;;;6.90;99.90;;;;;;4871033;29;20087;-91
2022/03/21 01:57:15;;;;;;;11.83;6.20;;;5.70;99.90;;;;;;4864230;29;20055;-93
2022/03/21 01:59:41;;;;;;;9.32;6.18;;;6.60;99.90;;;;;;4864681;29;20289;-93
2022/03/21 02:02:07;;;;;;;13.30;7.07;;;5.70;99.90;;;;;;4878570;29;20428;-93
2022/03/21 02:04:33;;;;;;;13.20;6.63;;;5.70;99.90;;;;;;4867853;29;20037;-92
2022/03/21 02:07:00;;;;;;;10.00;6.70;;;5.70;99.90;;;;;;4879789;29;20392;-93
2022/03/21 02:09:27;;;;;;;10.85;6.80;;;5.70;99.90;;;;;;4868193;29;20473;-92
2022/03/21 02:11:54;;;;;;;11.23;6.88;;;5.60;99.90;;;;;;4864775;29;20087;-93
2022/03/21 02:14:20;;;;;;;10.75;6.75;;;5.60;99.90;;;;;;4849505;29;20101;-93
2022/03/21 02:16:45;;;;;;;12.57;6.78;;;6.10;99.90;;;;;;4864441;29;20385;-93
2022/03/21 02:19:34;;;;;;;13.60;6.60;;;5.50;99.90;;;;;;4869488;29;20109;-93
2022/03/21 02:22:28;;;;;;;11.98;7.15;;;5.40;99.90;;;;;;4866287;29;20052;-92
2022/03/21 02:25:04;;;;;;;10.07;5.63;;;5.30;99.90;;;;;;4862619;29;20044;-93
2022/03/21 02:27:31;;;;;;;10.50;6.28;;;5.30;99.90;;;;;;4864728;29;20471;-93
2022/03/21 02:29:58;;;;;;;10.02;6.35;;;5.20;99.90;;;;;;4853422;29;20044;-92
2022/03/21 02:32:26;;;;;;;13.93;6.93;;;5.00;99.90;;;;;;4865941;29;20120;-92
2022/03/21 02:34:55;;;;;;;12.45;7.10;;;5.00;99.90;;;;;;4869919;29;20045;-93
2022/03/21 02:37:24;;;;;;;13.63;7.18;;;4.90;99.90;;;;;;4876898;29;20080;-92
2022/03/21 02:39:50;;;;;;;8.60;6.93;;;5.00;99.90;;;;;;4850281;29;20041;-92
2022/03/21 02:42:17;;;;;;;10.77;7.53;;;4.80;99.90;;;;;;4851633;29;20120;-93
2022/03/21 02:44:43;;;;;;;12.18;7.13;;;4.80;99.90;;;;;;4871526;29;20068;-93
2022/03/21 02:47:09;;;;;;;10.30;6.53;;;4.70;99.90;;;;;;4856602;29;20080;-92
2022/03/21 02:49:36;;;;;;;14.98;8.02;;;5.30;99.90;;;;;;4868274;29;20503;-93
2022/03/21 02:52:04;;;;;;;10.15;6.60;;;4.60;99.90;;;;;;4840626;29;20042;-91
2022/03/21 02:54:31;;;;;;;17.60;9.45;;;4.60;99.90;;;;;;4858927;29;20148;-92
2022/03/21 02:56:58;;;;;;;11.88;7.10;;;4.60;99.90;;;;;;4862678;29;20076;-92
2022/03/21 02:59:25;;;;;;;14.68;8.50;;;4.60;99.90;;;;;;4842207;29;20449;-92
2022/03/21 03:01:53;;;;;;;;;;;4.80;99.90;;;;;;4851333;29;20073;-92
2022/03/21 03:04:21;;;;;;;9.73;6.65;;;4.40;99.90;;;;;;4870419;29;20282;-92
2022/03/21 03:06:47;;;;;;;16.45;7.65;;;4.40;99.90;;;;;;4845371;29;20099;-90
2022/03/21 03:09:15;;;;;;;11.20;7.60;;;4.10;99.90;;;;;;4862850;29;20123;-93
2022/03/21 03:11:41;;;;;;;16.07;7.53;;;4.30;99.90;;;;;;4861070;29;20132;-92
2022/03/21 03:14:07;;;;;;;21.57;9.10;;;4.30;99.90;;;;;;4879929;29;20499;-93
2022/03/21 03:16:34;;;;;;;15.95;8.60;;;4.30;99.90;;;;;;4838060;29;20040;-92
2022/03/21 03:19:00;;;;;;;10.55;6.57;;;4.20;99.90;;;;;;4889717;29;20041;-93
2022/03/21 03:21:30;;;;;;;15.10;8.07;;;4.20;99.90;;;;;;4879772;29;20072;-93
2022/03/21 03:23:57;;;;;;;12.45;7.82;;;4.20;99.90;;;;;;4851133;29;20296;-93
2022/03/21 03:26:23;;;;;;;13.23;9.07;;;4.20;99.90;;;;;;4878316;29;20169;-92
2022/03/21 03:28:48;;;;;;;10.93;7.80;;;4.10;99.90;;;;;;4863264;29;20132;-93
2022/03/21 03:31:16;;;;;;;11.85;8.00;;;4.00;99.90;;;;;;4860838;29;20046;-93
2022/03/21 03:33:42;;;;;;;10.80;7.78;;;4.00;99.90;;;;;;4868262;29;20064;-92
2022/03/21 03:36:08;;;;;;;16.25;8.10;;;3.90;99.90;;;;;;4861796;29;20071;-91
2022/03/21 03:38:34;;;;;;;11.98;7.28;;;3.90;99.90;;;;;;4874684;29;20086;-93
2022/03/21 03:40:59;;;;;;;11.23;7.03;;;3.80;99.90;;;;;;4871033;29;20040;-93
2022/03/21 03:43:26;;;;;;;15.73;9.10;;;4.00;99.90;;;;;;4856150;29;20045;-92
2022/03/21 03:45:52;;;;;;;10.43;6.35;;;4.30;99.90;;;;;;4866511;29;20048;-92
2022/03/21 03:48:21;;;;;;;9.20;6.05;;;3.70;99.90;;;;;;4875282;29;20047;-92
2022/03/21 03:50:47;;;;;;;13.38;7.13;;;3.60;99.90;;;;;;4870032;29;20047;-92
2022/03/21 03:53:14;;;;;;;10.83;7.03;;;3.60;99.90;;;;;;4859377;29;20052;-93
2022/03/21 03:55:40;;;;;;;12.05;7.38;;;3.60;99.90;;;;;;4854361;29;20184;-93
2022/03/21 03:58:06;;;;;;;11.10;6.13;;;3.50;99.90;;;;;;4860313;29;20120;-93
2022/03/21 04:00:31;;;;;;;11.90;7.05;;;3.50;99.90;;;;;;4874212;29;20135;-93
2022/03/21 04:05:41;;;;;;;12.95;6.63;;;3.60;99.90;;;;;;4869041;29;20060;-93
2022/03/21 04:08:07;;;;;;;12.32;7.95;;;3.30;99.90;;;;;;4867570;29;20044;-93
2022/03/21 04:10:33;;;;;;;15.73;6.93;;;3.30;99.90;;;;;;4876363;29;20044;-93
2022/03/21 04:12:59;;;;;;;13.18;7.55;;;4.00;99.90;;;;;;4868170;29;20054;-92
2022/03/21 04:15:25;;;;;;;16.52;6.57;;;4.50;99.90;;;;;;4845509;29;20077;-92
2022/03/21 04:17:53;;;;;;;18.40;8.80;;;3.00;99.90;;;;;;4855169;29;20044;-92
2022/03/21 04:20:23;;;;;;;11.52;8.35;;;3.80;99.90;;;;;;4860117;29;20045;-93
2022/03/21 04:22:48;;;;;;;11.98;6.70;;;2.90;99.90;;;;;;4888918;29;20052;-93
2022/03/21 04:25:14;;;;;;;15.60;7.10;;;3.90;99.90;;;;;;4831834;29;20064;-92
2022/03/21 04:27:40;;;;;;;8.48;5.57;;;3.50;99.90;;;;;;4881787;29;20045;-92
2022/03/21 04:30:07;;;;;;;14.77;8.25;;;2.80;99.90;;;;;;4850427;29;20085;-93
2022/03/21 04:32:33;;;;;;;11.90;6.85;;;2.80;99.90;;;;;;4876627;29;20055;-93
2022/03/21 04:34:58;;;;;;;9.73;6.30;;;3.50;99.90;;;;;;4869611;29;20904;-91
2022/03/21 04:37:25;;;;;;;17.25;7.05;;;2.60;99.90;;;;;;4868623;29;20045;-92
2022/03/21 04:39:50;;;;;;;7.07;5.07;;;3.00;99.90;;;;;;4866598;29;20048;-93
2022/03/21 04:42:16;;;;;;;14.67;7.57;;;3.10;99.90;;;;;;4871022;29;20392;-88
2022/03/21 04:44:44;;;;;;;12.43;5.70;;;3.10;99.90;;;;;;4879061;29;20045;-94
2022/03/21 04:47:10;;;;;;;11.32;6.30;;;3.10;99.90;;;;;;4858895;29;20653;-92
2022/03/21 04:49:36;;;;;;;11.07;6.90;;;3.30;99.90;;;;;;4861876;29;20176;-93
2022/03/21 04:52:02;;;;;;;11.38;5.72;;;2.30;99.90;;;;;;4870924;29;20154;-92
2022/03/21 04:54:28;;;;;;;9.17;5.73;;;2.20;99.90;;;;;;4846080;29;20495;-93
2022/03/21 04:56:54;;;;;;;11.07;6.07;;;2.20;99.90;;;;;;4868972;29;20132;-91
2022/03/21 04:59:20;;;;;;;13.93;7.65;;;3.60;99.90;;;;;;4854842;29;20041;-92
2022/03/21 05:01:46;;;;;;;8.20;5.40;;;2.80;99.90;;;;;;4848966;29;20449;-92
2022/03/21 05:04:12;;;;;;;12.50;6.50;;;2.20;99.90;;;;;;4876470;29;20052;-93
2022/03/21 05:06:39;;;;;;;11.77;6.53;;;2.90;99.90;;;;;;4860986;29;20064;-91
2022/03/21 05:09:05;;;;;;;10.23;6.32;;;2.20;99.90;;;;;;4868722;29;20513;-93
2022/03/21 05:11:31;;;;;;;12.57;5.88;;;2.80;99.90;;;;;;4863914;29;20210;-93
2022/03/21 05:13:56;;;;;;;12.65;7.85;;;3.40;99.90;;;;;;4858781;29;20053;-93
2022/03/21 05:16:23;;;;;;;10.93;6.83;;;1.90;99.90;;;;;;4863971;29;20516;-91
2022/03/21 05:18:49;;;;;;;8.30;6.07;;;1.80;99.90;;;;;;4857063;29;20048;-93
2022/03/21 05:21:16;;;;;;;14.73;6.82;;;2.80;99.90;;;;;;4842863;29;20293;-92
2022/03/21 05:31:54;;;;;;;8.50;5.82;;;1.70;99.90;;;;;;4864557;29;20052;-92
2022/03/21 05:37:06;;;;;;;13.82;6.95;;;1.70;99.90;;;;;;4890733;29;20052;-94
2022/03/21 05:39:32;;;;;;;8.23;5.70;;;1.70;99.90;;;;;;4872586;29;20037;-92
2022/03/21 05:42:01;;;;;;;12.43;6.28;;;2.60;99.90;;;;;;4856476;29;20427;-92
2022/03/21 05:44:26;;;;;;;16.38;7.45;;;2.50;99.90;;;;;;4841826;29;20045;-85
2022/03/21 05:46:52;;;;;;;13.18;6.05;;;3.10;99.90;;;;;;4863190;29;20369;-91
2022/03/21 05:49:20;;;;;;;17.98;6.47;;;2.50;99.90;;;;;;4853550;29;20044;-92
2022/03/21 05:51:54;;;;;;;12.60;6.78;;;1.70;99.90;;;;;;4854745;29;20439;-92
2022/03/21 05:54:28;;;;;;;9.77;6.60;;;2.60;99.90;;;;;;4867555;29;20056;-92
2022/03/21 05:56:59;;;;;;;12.98;5.68;;;1.70;99.90;;;;;;4857055;29;20116;-92
2022/03/21 06:02:11;;;;;;;10.82;5.30;;;2.90;99.90;;;;;;4879390;29;20135;-92
2022/03/21 06:04:37;;;;;;;7.13;5.03;;;1.80;99.90;;;;;;4853803;29;20076;-88
2022/03/21 06:07:03;;;;;;;10.98;4.38;;;3.00;99.90;;;;;;4850054;29;20069;-87
2022/03/21 06:09:29;;;;;;;9.68;5.72;;;1.80;99.90;;;;;;4862460;29;20473;-87
2022/03/21 06:11:55;;;;;;;7.97;4.60;;;1.80;99.90;;;;;;4869665;29;20139;-90
2022/03/21 06:14:21;;;;;;;10.30;5.78;;;2.70;99.90;;;;;;4881352;29;20048;-87
2022/03/21 06:16:52;;;;;;;6.77;3.83;;;1.90;99.90;;;;;;4868495;29;20061;-93
2022/03/21 06:19:18;;;;;;;6.75;4.25;;;3.00;99.90;;;;;;4841322;29;20045;-93
2022/03/21 06:21:44;;;;;;;8.80;5.88;;;2.00;99.90;;;;;;4861589;29;20067;-92
2022/03/21 06:24:12;;;;;;;9.23;5.53;;;2.00;99.90;;;;;;4864885;29;20068;-94
2022/03/21 06:26:42;;;;;;;8.00;3.33;;;2.00;99.90;;;;;;4862218;29;20052;-94
2022/03/21 06:29:08;;;;;;;6.85;4.03;;;2.10;99.90;;;;;;4873596;29;20100;-93
2022/03/21 06:31:34;;;;;;;5.43;3.73;;;2.50;99.90;;;;;;4886161;29;20033;-93
2022/03/21 06:34:00;;;;;;;5.55;4.18;;;3.00;99.90;;;;;;4835525;29;20694;-94
2022/03/21 06:36:25;;;;;;;9.13;4.03;;;3.90;99.90;;;;;;4865010;29;20041;-93
2022/03/21 06:38:51;;;;;;;4.60;3.88;;;5.00;99.90;;;;;;4833663;29;20148;-92
2022/03/21 06:41:17;;;;;;;6.87;4.27;;;4.30;99.90;;;;;;4867331;29;20104;-92
2022/03/21 06:43:42;;;;;;;5.27;4.17;;;5.00;99.90;;;;;;4848757;29;20041;-90
2022/03/21 06:46:08;;;;;;;4.57;3.77;;;5.00;99.90;;;;;;4867125;29;20045;-91
2022/03/21 06:48:34;;;;;;;7.13;4.83;;;5.40;99.90;;;;;;4866290;29;20085;-89
2022/03/21 06:51:00;;;;;;;8.13;5.63;;;5.70;99.90;;;;;;4885727;29;20497;-90
2022/03/21 06:53:26;;;;;;;8.73;5.30;;;5.60;99.90;;;;;;4840437;29;20057;-90
2022/03/21 06:55:52;;;;;;;9.67;5.20;;;6.60;99.90;;;;;;4864706;29;20052;-90
2022/03/21 06:58:17;;;;;;;8.20;5.17;;;6.30;99.90;;;;;;4855653;29;20040;-90
2022/03/21 07:00:45;;;;;;;10.73;5.43;;;5.80;99.90;;;;;;4880063;29;20077;-89
2022/03/21 07:03:12;;;;;;;8.98;5.15;;;5.10;99.90;;;;;;4846359;29;20097;-90
2022/03/21 07:05:38;;;;;;;;;;;5.00;99.90;;;;;;4857540;29;20528;-90
2022/03/21 07:08:05;;;;;;;6.95;5.05;;;5.50;99.90;;;;;;4867833;29;19931;-90
2022/03/21 07:10:34;;;;;;;9.63;6.30;;;5.60;99.90;;;;;;4858790;29;20048;-90
2022/03/21 07:13:02;;;;;;;9.10;5.85;;;6.40;99.90;;;;;;4857899;29;20068;-90
2022/03/21 07:15:28;;;;;;;8.63;5.68;;;7.60;99.90;;;;;;4852783;29;20137;-90
2022/03/21 07:17:55;;;;;;;7.67;6.50;;;7.40;99.90;;;;;;4846369;29;20113;-90
2022/03/21 07:20:21;;;;;;;8.73;6.15;;;7.80;99.90;;;;;;4860870;29;20065;-90
2022/03/21 07:22:46;;;;;;;8.07;6.30;;;8.20;99.90;;;;;;4861953;29;20144;-91
2022/03/21 07:25:15;;;;;;;12.93;6.67;;;8.70;99.90;;;;;;4856652;29;20100;-90
2022/03/21 07:27:45;;;;;;;11.30;6.13;;;9.10;99.90;;;;;;4877298;29;20083;-90
2022/03/21 07:30:12;;;;;;;9.55;5.97;;;9.40;99.90;;;;;;4850626;29;20196;-92
2022/03/21 07:32:39;;;;;;;7.72;5.93;;;9.70;99.90;;;;;;4845199;29;20400;-93
2022/03/21 07:35:05;;;;;;;10.82;6.95;;;10.10;99.90;;;;;;4862180;29;20135;-93
2022/03/21 07:37:56;;;;;;;15.88;6.28;;;10.40;99.90;;;;;;4866239;29;20049;-93
2022/03/21 07:40:26;;;;;;;9.00;5.50;;;10.70;99.90;;;;;;4875800;29;20178;-91
2022/03/21 07:42:55;;;;;;;11.73;6.20;;;10.90;99.90;;;;;;4872770;29;20492;-91
2022/03/21 07:48:08;;;;;;;9.13;5.70;;;11.50;99.90;;;;;;4881940;29;20057;-91
2022/03/21 07:50:36;;;;;;;8.43;5.20;;;11.20;99.90;;;;;;4849380;29;20049;-90
2022/03/21 07:53:04;;;;;;;12.33;7.20;;;12.00;99.90;;;;;;4855994;29;20112;-94
2022/03/21 07:55:33;;;;;;;9.55;6.13;;;12.20;99.90;;;;;;4868059;29;20503;-89
2022/03/21 07:58:00;;;;;;;10.85;6.10;;;12.40;99.90;;;;;;4887359;29;20049;-88
2022/03/21 08:00:27;;;;;;;6.72;5.20;;;12.60;99.90;;;;;;4843104;29;20052;-90
2022/03/21 08:02:59;;;;;;;10.35;6.18;;;12.80;99.90;;;;;;4850914;29;20104;-91
2022/03/21 08:05:26;;;;;;;10.85;5.90;;;13.00;99.90;;;;;;4884030;29;20358;-90
2022/03/21 08:07:52;;;;;;;8.98;6.28;;;13.10;99.90;;;;;;4857293;29;20049;-84
2022/03/21 08:10:24;;;;;;;10.45;7.10;;;13.30;99.90;;;;;;4872225;29;20550;-94
2022/03/21 08:13:10;;;;;;;10.23;5.80;;;13.50;99.90;;;;;;4863526;29;20057;-92
2022/03/21 08:15:41;;;;;;;9.10;6.13;;;13.70;99.90;;;;;;4872980;29;20504;-91
2022/03/21 08:18:07;;;;;;;8.60;5.53;;;12.90;99.90;;;;;;4869941;29;20045;-94
2022/03/21 08:20:34;;;;;;;9.90;5.65;;;13.90;99.90;;;;;;4843012;29;20049;-87
2022/03/21 08:23:05;;;;;;;9.48;6.10;;;14.00;99.90;;;;;;4892135;29;20051;-85
2022/03/21 08:25:32;;;;;;;10.10;6.15;;;14.20;99.90;;;;;;4876944;29;20045;-84
2022/03/21 08:27:58;;;;;;;;;;;14.40;99.90;;;;;;4854200;29;20109;-86
2022/03/21 08:30:24;;;;;;;8.30;5.57;;;14.40;99.90;;;;;;4870384;29;20455;-86
2022/03/21 08:32:50;;;;;;;11.45;6.38;;;14.60;99.90;;;;;;4844158;29;20053;-87
2022/03/21 08:35:20;;;;;;;;;;;14.60;99.90;;;;;;4853223;29;20060;-87
2022/03/21 08:37:49;;;;;;;10.05;6.20;;;14.80;99.90;;;;;;4851299;29;19932;-89
2022/03/21 08:40:16;;;;;;;9.30;6.63;;;14.70;99.90;;;;;;4875649;29;20127;-88
2022/03/21 08:42:46;;;;;;;12.65;6.05;;;14.80;99.90;;;;;;4879217;29;20049;-87
2022/03/21 08:45:13;;;;;;;12.75;7.10;;;14.80;99.90;;;;;;4867259;29;20079;-86
2022/03/21 08:47:40;;;;;;;11.73;6.43;;;14.80;99.90;;;;;;4860644;29;20060;-88
2022/03/21 08:50:09;;;;;;;13.52;6.70;;;14.90;99.90;;;;;;4853711;29;20071;-88
2022/03/21 08:52:35;;;;;;;10.90;6.53;;;14.60;99.90;;;;;;4852278;29;20140;-88
2022/03/21 08:55:04;;;;;;;11.98;7.10;;;14.60;99.90;;;;;;4889861;29;20077;-88
2022/03/21 08:57:30;;;;;;;11.27;6.65;;;14.60;99.90;;;;;;4881214;29;20052;-88
2022/03/21 08:59:56;;;;;;;8.43;6.35;;;14.70;99.90;;;;;;4878729;29;20051;-88
2022/03/21 09:02:22;;;;;;;14.30;7.68;;;14.90;99.90;;;;;;4871675;29;20041;-87
2022/03/21 09:04:48;;;;;;;10.57;6.70;;;15.10;99.70;;;;;;4870022;29;20056;-88
2022/03/21 09:07:14;;;;;;;9.07;5.82;;;15.80;98.30;;;;;;4860110;29;20551;-87
2022/03/21 09:09:43;;;;;;;13.15;7.05;;;15.50;97.00;;;;;;4872368;29;20139;-87
2022/03/21 09:12:12;;;;;;;8.40;5.93;;;15.30;96.30;;;;;;4863616;29;20068;-87
2022/03/21 09:14:38;;;;;;;13.18;6.15;;;15.50;95.40;;;;;;4882102;29;20089;-88
2022/03/21 09:17:07;;;;;;;12.55;7.55;;;15.50;94.80;;;;;;4858102;29;20083;-87
2022/03/21 09:19:35;;;;;;;12.27;7.70;;;15.50;94.20;;;;;;4859550;29;20114;-88
2022/03/21 09:22:02;;;;;;;9.75;6.18;;;15.20;94.40;;;;;;4879618;29;20409;-87
2022/03/21 09:24:29;;;;;;;10.75;6.55;;;15.20;94.80;;;;;;4879046;29;20044;-87
2022/03/21 09:27:05;;;;;;;12.40;6.63;;;15.30;94.60;;;;;;4871469;29;20053;-87
2022/03/21 09:29:31;;;;;;;9.93;6.68;;;14.90;94.00;;;;;;4872637;29;20471;-87
2022/03/21 09:31:57;;;;;;;12.25;7.38;;;15.30;94.10;;;;;;4856656;29;20127;-88
2022/03/21 09:34:23;;;;;;;9.30;7.00;;;15.20;94.10;;;;;;4876102;29;20128;-87
2022/03/21 09:36:48;;;;;;;15.25;7.70;;;15.10;93.70;;;;;;4869235;29;20048;-87
2022/03/21 09:39:15;;;;;;;12.30;6.97;;;15.00;93.40;;;;;;4878109;29;20051;-86
2022/03/21 09:41:40;;;;;;;10.77;7.05;;;15.10;93.10;;;;;;4858935;29;20111;-88
2022/03/21 09:44:09;;;;;;;13.00;7.53;;;15.20;92.90;;;;;;4862615;29;20056;-88
2022/03/21 09:46:36;;;;;;;9.23;6.28;;;15.50;92.40;;;;;;4872222;29;20056;-87
2022/03/21 09:49:06;;;;;;;11.63;7.15;;;15.70;91.40;;;;;;4856347;29;20389;-88
2022/03/21 09:51:32;;;;;;;14.05;7.95;;;15.90;91.30;;;;;;4883219;29;20052;-87
2022/03/21 09:54:16;;;;;;;10.43;7.05;;;16.00;90.70;;;;;;4882750;29;20044;-94
2022/03/21 09:56:41;;;;;;;11.60;8.10;;;16.10;89.10;;;;;;4877538;29;20173;-89
2022/03/21 09:59:08;;;;;;;12.63;7.72;;;16.20;89.50;;;;;;4851920;29;20128;-89
2022/03/21 10:01:41;;;;;;;13.65;7.07;;;16.20;88.70;;;;;;4852629;29;20049;-89
2022/03/21 10:04:10;;;;;;;11.73;7.70;;;16.20;86.80;;;;;;4837815;29;20054;-89
2022/03/21 10:06:43;;;;;;;14.07;7.57;;;16.40;86.90;;;;;;4847418;29;20050;-88
2022/03/21 10:09:16;;;;;;;10.55;7.03;;;16.40;85.20;;;;;;4850893;29;20056;-89
2022/03/21 10:11:59;;;;;;;12.38;7.57;;;16.50;82.30;;;;;;4847924;29;20065;-89
2022/03/21 10:14:29;;;;;;;12.75;8.00;;;16.60;80.00;;;;;;4857082;29;20128;-89
2022/03/21 10:17:09;;;;;;;14.32;8.70;;;16.60;80.10;;;;;;4883294;29;20084;-88
2022/03/21 10:19:49;;;;;;;11.63;8.15;;;16.80;78.90;;;;;;4861130;29;20087;-88
2022/03/21 10:22:23;;;;;;;11.55;7.50;;;17.00;78.00;;;;;;4878226;29;20127;-86
2022/03/21 10:24:51;;;;;;;18.27;9.05;;;17.10;78.10;;;;;;4880771;29;20578;-88
2022/03/21 10:27:27;;;;;;;11.75;7.85;;;17.10;77.10;;;;;;4873021;29;20135;-88
2022/03/21 10:29:59;;;;;;;13.07;7.20;;;17.20;75.30;;;;;;4872122;29;20140;-87
2022/03/21 10:32:39;;;;;;;10.82;7.90;;;17.20;74.00;;;;;;4872364;29;20494;-86
2022/03/21 10:35:17;;;;;;;13.95;8.23;;;17.30;73.10;;;;;;4869444;29;20045;-87
2022/03/21 10:37:58;;;;;;;13.40;8.45;;;17.20;74.60;;;;;;4870653;29;20400;-87
2022/03/21 10:40:32;;;;;;;16.02;8.48;;;17.10;75.10;;;;;;4850082;29;20060;-88
2022/03/21 10:43:05;;;;;;;19.02;9.10;;;16.90;74.60;;;;;;4878003;29;20057;-88
2022/03/21 10:45:51;;;;;;;15.32;8.05;;;16.90;76.10;;;;;;4871520;29;20045;-87
2022/03/21 10:48:30;;;;;;;10.38;6.90;;;17.00;74.80;;;;;;4869978;29;20127;-87
2022/03/21 10:51:01;;;;;;;13.85;7.97;;;17.10;74.50;;;;;;4881413;29;20040;-87
2022/03/21 10:53:28;;;;;;;12.82;7.90;;;17.00;74.30;;;;;;4878636;29;20188;-87
2022/03/21 10:55:59;;;;;;;12.88;8.18;;;16.90;75.50;;;;;;4858818;29;20053;-87
2022/03/21 10:58:34;;;;;;;10.90;7.43;;;16.80;75.30;;;;;;4870935;29;20107;-87
2022/03/21 11:01:19;;;;;;;15.60;8.38;;;16.80;74.00;;;;;;4879422;29;20097;-88
2022/03/21 11:03:49;;;;;;;12.32;8.57;;;16.00;72.30;;;;;;4845504;29;20049;-88
2022/03/21 11:06:15;;;;;;;20.08;7.93;;;17.00;75.00;;;;;;4862114;29;20149;-88
2022/03/21 11:08:51;;;;;;;14.35;8.10;;;17.20;74.80;;;;;;4851639;29;20073;-87
2022/03/21 11:11:17;;;;;;;11.82;8.27;;;17.30;74.10;;;;;;4842861;29;20049;-88
2022/03/21 11:13:44;;;;;;;18.25;8.60;;;17.60;73.90;;;;;;4844508;29;20382;-87
2022/03/21 11:16:10;;;;;;;11.35;7.38;;;17.70;72.90;;;;;;4829123;29;20060;-88
2022/03/21 11:18:36;;;;;;;15.43;8.05;;;17.70;73.30;;;;;;4839546;29;20046;-88
2022/03/21 11:21:02;;;;;;;14.95;8.82;;;17.60;73.00;;;;;;4829700;29;20050;-88
2022/03/21 11:23:28;;;;;;;12.27;8.07;;;17.60;72.40;;;;;;4844033;29;20053;-88
2022/03/21 11:25:54;;;;;;;11.10;7.72;;;17.70;72.40;;;;;;4829182;29;20140;-88
2022/03/21 11:28:40;;;;;;;13.82;8.77;;;17.80;71.40;;;;;;4844181;29;20140;-88
2022/03/21 11:31:42;;;;;;;11.43;7.88;;;18.00;68.10;;;;;;4844186;29;20121;-88
2022/03/21 11:34:30;;;;;;;12.77;8.20;;;17.10;69.40;;;;;;4829251;29;20069;-89
2022/03/21 11:36:57;;;;;;;;;;;17.80;68.60;;;;;;4829824;29;20049;-88
2022/03/21 11:39:26;;;;;;;14.30;7.45;;;17.90;69.10;;;;;;4828710;29;19924;-88
2022/03/21 11:42:07;;;;;;;12.55;8.68;;;18.10;71.00;;;;;;4859651;29;20089;-88
2022/03/21 11:44:53;;;;;;;14.80;8.20;;;18.20;70.00;;;;;;4829337;29;20103;-87
2022/03/21 11:47:24;;;;;;;16.30;8.23;;;18.30;68.80;;;;;;4833586;29;20696;-88
2022/03/21 11:49:51;;;;;;;13.88;8.10;;;18.70;66.90;;;;;;4844438;29;20113;-88
2022/03/21 11:52:17;;;;;;;12.98;8.07;;;19.10;67.20;;;;;;4874631;29;20046;-88
2022/03/21 11:54:43;;;;;;;15.95;8.68;;;19.30;66.20;;;;;;4859771;29;20068;-88
2022/03/21 11:57:10;;;;;;;;;;;19.40;65.60;;;;;;4844597;29;20057;-88
2022/03/21 11:59:36;;;;;;;11.23;7.03;;;19.40;60.50;;;;;;4869163;29;19990;-89
2022/03/21 12:02:25;;;;;;;13.05;7.78;;;19.40;65.80;;;;;;4881478;29;20524;-91
2022/03/21 12:05:06;;;;;;;12.32;7.43;;;19.30;60.80;;;;;;4821182;29;20058;-93
2022/03/21 12:07:37;;;;;;;11.20;7.45;;;19.20;61.00;;;;;;4845131;29;20493;-92
2022/03/21 12:10:04;;;;;;;9.23;6.95;;;19.00;63.20;;;;;;4875344;29;20507;-90
2022/03/21 12:12:52;;;;;;;;;;;;;;;;;;;;;
2022/03/21 12:15:36;;;;;;;14.38;7.82;;;18.10;60.20;;;;;;4878143;29;20053;-92
2022/03/21 12:18:01;;;;;;;15.45;8.63;;;18.80;61.70;;;;;;4859800;29;20413;-92
2022/03/21 12:21:11;;;;;;;12.55;6.93;;;18.70;62.40;;;;;;4891396;29;20049;-89
2022/03/21 12:24:37;;;;;;;11.20;7.70;;;18.90;59.90;;;;;;4840673;29;20462;-91
2022/03/21 12:27:07;;;;;;;9.85;6.72;;;19.10;58.10;;;;;;4852715;29;20117;-91
2022/03/21 12:30:00;;;;;;;15.38;7.18;;;19.10;61.50;;;;;;4848109;29;20065;-90
2022/03/21 12:32:27;;;;;;;11.35;6.63;;;19.10;60.10;;;;;;4864800;29;20075;-88
2022/03/21 12:35:06;;;;;;;;;;;;;;;;;;;;;
2022/03/21 12:37:36;;;;;;;13.55;6.60;;;18.80;58.10;;;;;;4880939;29;19924;-88
2022/03/21 12:40:03;;;;;;;9.55;6.65;;;19.10;61.50;;;;;;4870125;29;20500;-87
2022/03/21 12:42:29;;;;;;;12.70;7.50;;;19.20;60.90;;;;;;4862814;29;20415;-86
2022/03/21 12:44:55;;;;;;;13.88;8.10;;;19.40;60.50;;;;;;4876287;29;20053;-87
2022/03/21 12:47:24;;;;;;;;;;;19.40;59.80;;;;;;4847204;29;20045;-88
2022/03/21 12:49:59;;;;;;;11.18;7.32;;;19.80;55.30;;;;;;4856097;29;19927;-89
2022/03/21 12:52:42;;;;;;;13.43;7.32;;;19.80;59.30;;;;;;4877499;29;20063;-89
2022/03/21 12:55:14;;;;;;;13.32;7.50;;;20.10;58.10;;;;;;4855006;29;20096;-87
2022/03/21 12:58:01;;;;;;;13.63;8.05;;;20.20;57.20;;;;;;4866741;29;20172;-88
2022/03/21 13:00:36;;;;;;;11.85;8.10;;;20.50;56.50;;;;;;4852479;29;20084;-90
2022/03/21 13:03:15;;;;;;;10.70;6.95;;;20.60;58.10;;;;;;4862207;29;20095;-90
2022/03/21 13:11:45;;;;;;;11.13;6.90;;;20.90;54.90;;;;;;4892284;29;20179;-90
2022/03/21 13:14:15;;;;;;;10.63;6.68;;;20.90;55.10;;;;;;4876361;29;20135;-91
2022/03/21 13:16:53;;;;;;;13.07;7.78;;;20.80;57.50;;;;;;4827502;29;20092;-90
2022/03/21 13:19:22;;;;;;;13.00;7.22;;;20.80;55.30;;;;;;4873929;29;20524;-90
2022/03/21 13:21:54;;;;;;;16.77;7.47;;;20.70;57.30;;;;;;4828258;29;20053;-90
2022/03/21 13:24:39;;;;;;;13.63;8.15;;;20.80;56.10;;;;;;4827686;29;20049;-90
2022/03/21 13:27:06;;;;;;;17.30;7.97;;;20.80;55.10;;;;;;4874208;29;20136;-90